Time;durP1;ratioP1;P1;durP2;ratioP2;P2;SDS_P1;SDS_P2;PMS_P1;PMS_P2;Temp;Humidity;BMP_temperature;BMP_pressure;BME280_temperature;BME280_humidity;BME280_pressure;Samples;Min_cycle;Max_cycle;Signal;HPM_P1;HPM_P2
2022/08/13 00:01:23;;;;;;;4.65;2.15;;;27.50;44.70;;;;;;5013914;28;20057;-83
2022/08/13 00:03:52;;;;;;;2.97;1.70;;;27.40;44.70;;;;;;5014123;28;20037;-82
2022/08/13 00:09:08;;;;;;;4.35;2.08;;;27.30;44.90;;;;;;5013810;28;20022;-82
2022/08/13 00:14:23;;;;;;;8.05;2.00;;;27.20;45.20;;;;;;5013075;28;20056;-82
2022/08/13 00:16:55;;;;;;;8.30;2.65;;;27.10;45.20;;;;;;5013804;28;20022;-82
2022/08/13 00:19:22;;;;;;;5.95;2.22;;;27.10;45.30;;;;;;5013867;28;20029;-82
2022/08/13 00:21:47;;;;;;;4.20;2.53;;;27.00;45.40;;;;;;5013711;28;20029;-82
2022/08/13 00:24:14;;;;;;;2.83;2.53;;;27.10;46.20;;;;;;5013577;28;20026;-82
2022/08/13 00:26:40;;;;;;;6.65;2.05;;;27.00;45.60;;;;;;5013122;28;20026;-82
2022/08/13 00:29:06;;;;;;;6.20;2.20;;;27.00;45.80;;;;;;5013610;28;20036;-82
2022/08/13 00:31:32;;;;;;;6.22;2.05;;;27.00;45.80;;;;;;5013586;28;20099;-82
2022/08/13 00:33:59;;;;;;;9.93;2.25;;;27.00;45.80;;;;;;5013476;28;20509;-82
2022/08/13 00:36:26;;;;;;;7.82;2.25;;;26.90;46.00;;;;;;5013461;28;20099;-83
2022/08/13 00:38:53;;;;;;;6.32;2.20;;;26.80;46.00;;;;;;5013340;28;20021;-82
2022/08/13 00:41:38;;;;;;;7.07;2.40;;;26.70;46.10;;;;;;5013488;28;20045;-82
2022/08/13 00:44:16;;;;;;;4.78;2.03;;;26.80;46.30;;;;;;5013482;28;20025;-82
2022/08/13 00:46:42;;;;;;;6.22;2.15;;;26.70;46.40;;;;;;5013196;28;20076;-82
2022/08/13 00:49:10;;;;;;;8.60;2.35;;;26.60;46.50;;;;;;5013485;28;20052;-82
2022/08/13 00:51:38;;;;;;;5.72;2.28;;;26.60;46.60;;;;;;5013172;28;20029;-82
2022/08/13 00:54:11;;;;;;;7.53;2.53;;;26.60;46.80;;;;;;5013178;28;20434;-82
2022/08/13 00:56:37;;;;;;;5.40;1.92;;;26.50;46.80;;;;;;5013380;28;20029;-83
2022/08/13 00:59:10;;;;;;;7.32;2.33;;;26.40;46.90;;;;;;5028416;28;20455;-82
2022/08/13 01:01:38;;;;;;;4.68;2.30;;;26.40;46.90;;;;;;5013188;28;20041;-82
2022/08/13 01:04:06;;;;;;;3.30;2.30;;;26.40;47.10;;;;;;5013414;28;20081;-82
2022/08/13 01:06:32;;;;;;;6.60;2.47;;;26.40;47.20;;;;;;5013109;28;20022;-82
2022/08/13 01:08:58;;;;;;;11.02;2.65;;;26.30;47.10;;;;;;5012825;28;20030;-82
2022/08/13 01:11:24;;;;;;;8.30;2.45;;;26.20;47.20;;;;;;5013178;28;20026;-82
2022/08/13 01:13:54;;;;;;;6.90;2.15;;;26.20;47.30;;;;;;5013364;28;20422;-82
2022/08/13 01:16:20;;;;;;;4.45;1.92;;;26.20;47.30;;;;;;5011909;28;20023;-82
2022/08/13 01:18:50;;;;;;;6.38;2.53;;;26.20;47.40;;;;;;5013034;28;20041;-82
2022/08/13 01:21:19;;;;;;;4.10;2.10;;;26.20;47.50;;;;;;5013047;28;20037;-82
2022/08/13 01:23:48;;;;;;;4.68;2.40;;;26.20;47.70;;;;;;5013140;28;20033;-82
2022/08/13 01:26:18;;;;;;;7.10;2.17;;;26.20;47.70;;;;;;5013088;28;20061;-82
2022/08/13 01:28:45;;;;;;;5.15;2.65;;;26.10;47.60;;;;;;5012998;28;20033;-82
2022/08/13 01:31:14;;;;;;;7.95;2.35;;;26.10;47.90;;;;;;5013188;28;20030;-82
2022/08/13 01:33:43;;;;;;;4.70;2.47;;;26.00;47.90;;;;;;5013061;28;20026;-82
2022/08/13 01:36:10;;;;;;;9.05;2.38;;;26.00;48.60;;;;;;5012561;28;20033;-82
2022/08/13 01:38:37;;;;;;;6.30;2.40;;;26.00;48.00;;;;;;5014725;28;20033;-82
2022/08/13 01:41:04;;;;;;;8.40;2.45;;;25.90;48.20;;;;;;5016596;28;20033;-83
2022/08/13 01:43:34;;;;;;;4.85;2.67;;;25.90;48.30;;;;;;5016620;28;20033;-82
2022/08/13 01:46:01;;;;;;;6.55;2.45;;;25.90;48.40;;;;;;5016571;28;20148;-83
2022/08/13 01:51:24;;;;;;;5.45;2.00;;;25.80;48.60;;;;;;5016632;28;20441;-82
2022/08/13 01:53:52;;;;;;;5.15;2.42;;;25.70;48.70;;;;;;5016405;28;20067;-82
2022/08/13 01:56:22;;;;;;;6.00;2.47;;;25.60;48.80;;;;;;5016570;28;20061;-82
2022/08/13 01:58:53;;;;;;;4.43;2.55;;;25.50;48.90;;;;;;5016018;28;20029;-82
2022/08/13 02:01:24;;;;;;;4.15;2.42;;;25.50;49.00;;;;;;5016257;28;20048;-82
2022/08/13 02:04:01;;;;;;;7.23;2.50;;;25.40;49.10;;;;;;5016143;28;20502;-82
2022/08/13 02:06:29;;;;;;;10.88;2.50;;;25.40;49.30;;;;;;5016007;28;20625;-82
2022/08/13 02:08:58;;;;;;;7.18;2.15;;;25.40;49.40;;;;;;5016008;28;20030;-82
2022/08/13 02:11:24;;;;;;;8.30;2.67;;;25.40;49.30;;;;;;5014705;28;20112;-82
2022/08/13 02:13:53;;;;;;;6.72;2.55;;;25.30;49.40;;;;;;5013626;28;20384;-82
2022/08/13 02:16:19;;;;;;;5.15;2.38;;;25.30;49.40;;;;;;5015555;28;20120;-82
2022/08/13 02:18:45;;;;;;;4.68;2.35;;;25.30;49.70;;;;;;5014435;28;20455;-82
2022/08/13 02:21:11;;;;;;;8.02;2.47;;;25.20;49.70;;;;;;5015328;28;20092;-82
2022/08/13 02:23:38;;;;;;;2.78;2.20;;;25.20;49.60;;;;;;5015794;28;20068;-82
2022/08/13 02:26:05;;;;;;;5.05;2.30;;;25.20;49.80;;;;;;5014575;28;20026;-82
2022/08/13 02:28:37;;;;;;;6.50;2.30;;;25.10;49.80;;;;;;5015765;28;20025;-82
2022/08/13 02:31:03;;;;;;;4.85;2.63;;;25.10;49.90;;;;;;5015847;28;20030;-82
2022/08/13 02:33:29;;;;;;;4.35;2.50;;;25.10;49.90;;;;;;5015807;28;20026;-82
2022/08/13 02:35:55;;;;;;;6.47;2.67;;;25.10;50.00;;;;;;5015339;28;20029;-82
2022/08/13 02:38:20;;;;;;;5.53;2.60;;;25.10;50.00;;;;;;5015465;28;20019;-82
2022/08/13 02:43:32;;;;;;;6.65;2.67;;;25.00;50.10;;;;;;5015786;28;20037;-82
2022/08/13 02:46:00;;;;;;;4.78;3.00;;;25.00;50.20;;;;;;5015590;28;20026;-82
2022/08/13 02:48:26;;;;;;;4.80;2.40;;;24.90;50.90;;;;;;5014663;28;20022;-82
2022/08/13 02:50:55;;;;;;;5.95;2.80;;;24.90;50.30;;;;;;5015385;28;20522;-82
2022/08/13 02:53:22;;;;;;;6.82;2.60;;;25.00;50.20;;;;;;5015596;28;20053;-82
2022/08/13 02:55:48;;;;;;;5.25;2.45;;;24.90;50.40;;;;;;5015309;28;20486;-83
2022/08/13 02:58:15;;;;;;;6.70;2.65;;;24.90;50.50;;;;;;5015336;28;20441;-82
2022/08/13 03:00:48;;;;;;;3.72;2.40;;;24.90;50.30;;;;;;5014971;28;20498;-82
2022/08/13 03:03:18;;;;;;;6.72;2.70;;;24.90;50.40;;;;;;5014691;28;20037;-83
2022/08/13 03:05:44;;;;;;;10.30;3.58;;;24.90;50.50;;;;;;5015350;28;20051;-83
2022/08/13 03:08:11;;;;;;;6.78;2.70;;;24.90;50.60;;;;;;5014960;28;20463;-83
2022/08/13 03:10:39;;;;;;;5.40;2.80;;;24.90;50.50;;;;;;5014940;28;20033;-82
2022/08/13 03:13:15;;;;;;;6.93;2.95;;;24.90;50.60;;;;;;5014858;28;20033;-82
2022/08/13 03:15:42;;;;;;;5.85;2.35;;;24.80;50.70;;;;;;5014878;28;20021;-82
2022/08/13 03:18:09;;;;;;;7.18;2.35;;;24.80;50.70;;;;;;5014597;28;20413;-83
2022/08/13 03:20:34;;;;;;;5.13;3.22;;;24.80;50.70;;;;;;5014850;28;20030;-83
2022/08/13 03:23:01;;;;;;;10.07;2.42;;;24.80;50.90;;;;;;5014584;28;20036;-82
2022/08/13 03:25:29;;;;;;;6.80;2.65;;;24.80;50.90;;;;;;5014677;28;20075;-82
2022/08/13 03:27:58;;;;;;;3.70;2.35;;;24.80;51.10;;;;;;5014655;28;20025;-82
2022/08/13 03:30:26;;;;;;;4.55;2.42;;;24.70;51.10;;;;;;5014319;28;20061;-83
2022/08/13 03:32:52;;;;;;;5.88;2.55;;;24.70;51.10;;;;;;5014685;28;20033;-83
2022/08/13 03:35:24;;;;;;;4.15;2.53;;;24.70;51.40;;;;;;5015257;28;20025;-82
2022/08/13 03:37:53;;;;;;;5.20;2.83;;;24.60;51.40;;;;;;5013114;28;20053;-82
2022/08/13 03:40:21;;;;;;;5.90;2.90;;;24.50;51.40;;;;;;5014299;28;20065;-82
2022/08/13 03:42:48;;;;;;;6.32;2.72;;;24.50;51.60;;;;;;5014433;28;20021;-82
2022/08/13 03:45:18;;;;;;;7.82;2.83;;;24.50;51.50;;;;;;5014357;28;20026;-82
2022/08/13 03:47:45;;;;;;;9.00;2.65;;;24.50;51.50;;;;;;5014025;28;20030;-83
2022/08/13 03:50:13;;;;;;;4.28;2.95;;;24.50;51.70;;;;;;5014259;28;20033;-82
2022/08/13 03:52:39;;;;;;;7.32;2.83;;;24.50;51.80;;;;;;5014340;28;20022;-82
2022/08/13 03:55:13;;;;;;;5.93;2.83;;;24.40;51.80;;;;;;5014079;28;20463;-83
2022/08/13 03:57:41;;;;;;;6.13;2.65;;;24.40;51.80;;;;;;5014192;28;20029;-83
2022/08/13 04:00:10;;;;;;;7.78;2.95;;;24.40;51.80;;;;;;5013685;28;20034;-83
2022/08/13 04:02:40;;;;;;;6.07;2.80;;;24.30;52.10;;;;;;5013666;28;20116;-82
2022/08/13 04:05:11;;;;;;;4.28;2.67;;;24.30;52.20;;;;;;5013810;28;20475;-82
2022/08/13 04:07:37;;;;;;;6.90;2.75;;;24.20;52.30;;;;;;5012715;28;20026;-82
2022/08/13 04:10:04;;;;;;;8.45;3.22;;;24.20;52.40;;;;;;5013746;28;20089;-82
2022/08/13 04:12:30;;;;;;;8.93;3.53;;;24.20;52.40;;;;;;5014012;28;20046;-83
2022/08/13 04:14:55;;;;;;;9.32;3.15;;;24.20;52.40;;;;;;5013751;28;20093;-82
2022/08/13 04:17:21;;;;;;;5.55;2.70;;;24.30;52.40;;;;;;5013471;28;20028;-82
2022/08/13 04:19:47;;;;;;;5.47;2.55;;;24.20;52.40;;;;;;5013764;28;20434;-83
2022/08/13 04:22:13;;;;;;;5.45;2.60;;;24.20;52.50;;;;;;5013851;28;20025;-83
2022/08/13 04:24:39;;;;;;;6.57;3.30;;;24.10;52.60;;;;;;5013511;28;20026;-83
2022/08/13 04:27:06;;;;;;;4.22;2.97;;;24.10;52.70;;;;;;5013486;28;20057;-83
2022/08/13 04:29:32;;;;;;;9.60;3.42;;;24.10;52.80;;;;;;5013760;28;20549;-83
2022/08/13 04:31:59;;;;;;;6.28;2.97;;;24.00;52.80;;;;;;5013498;28;20026;-83
2022/08/13 04:34:27;;;;;;;6.75;3.00;;;24.00;53.00;;;;;;5013676;28;20075;-83
2022/08/13 04:36:53;;;;;;;4.00;2.67;;;24.00;53.20;;;;;;5013330;28;20032;-82
2022/08/13 04:39:19;;;;;;;6.78;2.88;;;24.00;53.20;;;;;;5013406;28;20379;-82
2022/08/13 04:41:45;;;;;;;8.32;2.70;;;23.90;53.80;;;;;;5013495;28;20030;-82
2022/08/13 04:44:11;;;;;;;8.13;3.35;;;23.90;53.30;;;;;;5013691;28;20022;-83
2022/08/13 04:46:38;;;;;;;7.68;3.08;;;23.90;53.30;;;;;;5012997;28;20033;-82
2022/08/13 04:49:04;;;;;;;7.05;2.90;;;23.90;53.60;;;;;;5013386;28;20108;-83
2022/08/13 04:51:31;;;;;;;9.93;3.25;;;23.80;53.60;;;;;;5013346;28;20045;-83
2022/08/13 04:53:57;;;;;;;6.10;2.72;;;23.80;53.60;;;;;;5013588;28;20125;-83
2022/08/13 04:56:22;;;;;;;6.75;2.88;;;23.90;53.60;;;;;;5013479;28;20471;-83
2022/08/13 04:58:48;;;;;;;7.00;2.95;;;23.80;53.50;;;;;;5013000;28;20435;-82
2022/08/13 05:01:14;;;;;;;4.15;2.67;;;23.70;53.60;;;;;;5011442;28;20048;-82
2022/08/13 05:03:45;;;;;;;7.32;3.00;;;23.80;53.70;;;;;;5013402;28;20426;-82
2022/08/13 05:06:19;;;;;;;11.00;2.88;;;23.70;53.80;;;;;;5011660;28;20545;-82
2022/08/13 05:08:46;;;;;;;6.72;3.10;;;23.70;54.10;;;;;;4994092;28;20033;-82
2022/08/13 05:11:12;;;;;;;4.88;3.08;;;23.70;54.10;;;;;;5012992;28;20076;-82
2022/08/13 05:13:39;;;;;;;10.05;3.17;;;23.60;54.10;;;;;;5016443;28;20640;-82
2022/08/13 05:16:09;;;;;;;8.70;3.05;;;23.60;54.20;;;;;;5017155;28;20076;-83
2022/08/13 05:18:37;;;;;;;5.97;3.00;;;23.60;54.40;;;;;;5017201;28;20030;-83
2022/08/13 05:21:05;;;;;;;6.18;3.65;;;23.50;54.60;;;;;;5016829;28;20034;-82
2022/08/13 05:23:34;;;;;;;8.48;3.65;;;23.50;54.60;;;;;;5017265;28;20382;-83
2022/08/13 05:26:00;;;;;;;7.72;3.53;;;23.50;54.70;;;;;;5016549;28;20471;-83
2022/08/13 05:28:26;;;;;;;6.45;2.95;;;23.50;54.70;;;;;;5016945;28;20030;-83
2022/08/13 05:30:52;;;;;;;6.00;3.17;;;23.50;54.80;;;;;;5017238;28;20053;-82
2022/08/13 05:33:25;;;;;;;6.45;3.22;;;23.50;54.90;;;;;;5016703;28;20065;-82
2022/08/13 05:35:55;;;;;;;4.40;3.13;;;23.50;55.00;;;;;;5016915;28;20125;-82
2022/08/13 05:38:22;;;;;;;7.63;3.35;;;23.40;55.00;;;;;;5016501;28;20038;-83
2022/08/13 05:40:52;;;;;;;4.32;3.30;;;23.50;55.30;;;;;;5016819;28;20501;-83
2022/08/13 05:43:21;;;;;;;6.85;3.63;;;23.50;55.40;;;;;;5016345;28;20022;-82
2022/08/13 05:45:57;;;;;;;6.85;3.10;;;23.50;56.10;;;;;;5016550;28;20072;-82
2022/08/13 05:48:26;;;;;;;10.25;3.20;;;23.50;55.30;;;;;;5016352;28;20052;-82
2022/08/13 05:50:54;;;;;;;7.43;3.30;;;23.40;55.40;;;;;;5016488;28;20395;-83
2022/08/13 05:53:21;;;;;;;9.70;3.25;;;23.40;55.60;;;;;;5016462;28;20018;-82
2022/08/13 05:55:47;;;;;;;7.32;2.72;;;23.30;56.00;;;;;;5016567;28;20081;-83
2022/08/13 05:58:13;;;;;;;9.48;2.95;;;23.30;56.20;;;;;;5015817;28;20022;-83
2022/08/13 06:03:26;;;;;;;5.93;2.80;;;23.40;56.10;;;;;;5016482;28;20033;-83
2022/08/13 06:05:55;;;;;;;4.93;2.72;;;23.50;56.30;;;;;;5016322;28;20109;-82
2022/08/13 06:08:30;;;;;;;7.50;2.72;;;23.50;56.10;;;;;;5015954;28;20053;-82
2022/08/13 06:10:58;;;;;;;3.63;2.60;;;23.50;56.10;;;;;;5016241;28;20022;-82
2022/08/13 06:13:25;;;;;;;8.40;2.78;;;23.60;56.20;;;;;;5015731;28;20092;-82
2022/08/13 06:16:00;;;;;;;4.28;2.70;;;23.60;56.00;;;;;;5015931;28;20483;-82
2022/08/13 06:18:35;;;;;;;7.65;2.63;;;23.70;55.90;;;;;;5015817;28;20026;-82
2022/08/13 06:21:05;;;;;;;5.70;2.90;;;23.70;55.90;;;;;;5016012;28;20186;-83
2022/08/13 06:23:34;;;;;;;6.82;2.92;;;23.80;55.80;;;;;;5014991;28;20410;-82
2022/08/13 06:26:00;;;;;;;10.13;3.00;;;23.90;55.90;;;;;;5015625;28;20018;-82
2022/08/13 06:28:29;;;;;;;7.43;3.05;;;23.90;56.20;;;;;;5015689;28;20022;-83
2022/08/13 06:31:00;;;;;;;9.18;2.75;;;24.00;56.70;;;;;;5016047;28;20422;-82
2022/08/13 06:33:28;;;;;;;9.73;2.90;;;24.00;55.90;;;;;;5015703;28;20113;-83
2022/08/13 06:35:55;;;;;;;12.15;3.10;;;24.10;56.00;;;;;;4998014;28;20022;-83
2022/08/13 06:38:25;;;;;;;10.07;3.33;;;24.10;56.10;;;;;;4997876;28;20022;-82
2022/08/13 06:40:52;;;;;;;10.50;2.83;;;24.10;56.30;;;;;;5015370;28;20036;-83
2022/08/13 06:43:19;;;;;;;14.77;3.40;;;24.10;56.20;;;;;;5015467;28;20536;-83
2022/08/13 06:45:46;;;;;;;12.73;3.05;;;24.20;56.40;;;;;;5015568;28;20026;-82
2022/08/13 06:48:13;;;;;;;12.05;3.20;;;24.20;56.40;;;;;;5015051;28;20040;-82
2022/08/13 06:50:39;;;;;;;9.25;3.17;;;24.20;56.30;;;;;;5015476;28;20030;-82
2022/08/13 06:53:06;;;;;;;7.38;3.25;;;24.30;56.50;;;;;;5015539;28;20030;-83
2022/08/13 06:55:36;;;;;;;6.63;3.30;;;24.30;56.60;;;;;;5014813;28;20018;-83
2022/08/13 06:58:09;;;;;;;7.43;2.97;;;24.40;56.40;;;;;;5015114;28;20022;-83
2022/08/13 07:00:38;;;;;;;5.88;2.53;;;24.40;56.50;;;;;;5015104;28;20045;-83
2022/08/13 07:03:07;;;;;;;6.38;2.83;;;24.40;56.40;;;;;;5015037;28;20018;-83
2022/08/13 07:05:38;;;;;;;12.07;3.55;;;24.50;56.70;;;;;;5015347;28;20029;-83
2022/08/13 07:08:07;;;;;;;7.60;2.80;;;24.60;56.40;;;;;;5014805;28;20356;-83
2022/08/13 07:10:34;;;;;;;10.68;2.85;;;24.80;56.00;;;;;;5014751;28;20030;-83
2022/08/13 07:13:00;;;;;;;5.05;2.30;;;24.80;55.20;;;;;;5015074;28;20105;-83
2022/08/13 07:15:26;;;;;;;4.90;2.30;;;24.90;55.20;;;;;;5014769;28;20067;-83
2022/08/13 07:17:55;;;;;;;9.88;2.72;;;24.90;54.50;;;;;;5014565;28;20529;-83
2022/08/13 07:20:21;;;;;;;11.40;3.00;;;25.00;54.60;;;;;;5014845;28;20042;-83
2022/08/13 07:22:47;;;;;;;8.40;2.40;;;25.10;54.70;;;;;;5015062;28;20052;-83
2022/08/13 07:25:13;;;;;;;7.10;2.13;;;25.20;54.00;;;;;;5014384;28;20025;-83
2022/08/13 07:27:41;;;;;;;3.10;1.85;;;25.30;53.60;;;;;;5014581;28;20076;-83
2022/08/13 07:30:08;;;;;;;9.35;2.28;;;25.30;53.30;;;;;;5014373;28;20026;-83
2022/08/13 07:32:37;;;;;;;5.18;1.80;;;25.40;52.90;;;;;;5014480;28;20038;-83
2022/08/13 07:35:04;;;;;;;2.75;1.67;;;25.50;52.90;;;;;;5014545;28;20029;-82
2022/08/13 07:37:32;;;;;;;8.07;2.33;;;25.60;52.80;;;;;;5013382;28;20131;-84
2022/08/13 07:39:59;;;;;;;3.33;1.88;;;25.60;52.70;;;;;;5014044;28;20092;-83
2022/08/13 07:42:27;;;;;;;3.40;1.50;;;25.70;52.50;;;;;;5014499;28;20114;-83
2022/08/13 07:44:53;;;;;;;3.72;1.85;;;25.80;52.40;;;;;;5014199;28;20101;-83
2022/08/13 07:47:21;;;;;;;6.32;1.77;;;25.90;52.20;;;;;;5014118;28;20075;-83
2022/08/13 07:49:47;;;;;;;8.38;1.98;;;26.00;52.20;;;;;;5014249;28;20068;-83
2022/08/13 07:52:14;;;;;;;7.63;1.90;;;26.00;52.40;;;;;;5014332;28;20453;-83
2022/08/13 07:54:46;;;;;;;7.80;1.90;;;26.10;52.50;;;;;;5013819;28;20061;-83
2022/08/13 07:57:12;;;;;;;3.55;1.60;;;26.10;52.50;;;;;;5013123;28;20014;-83
2022/08/13 07:59:37;;;;;;;5.40;2.13;;;26.20;52.10;;;;;;5014087;28;20371;-83
2022/08/13 08:02:07;;;;;;;5.47;1.95;;;26.30;51.80;;;;;;5014183;28;20562;-83
2022/08/13 08:04:35;;;;;;;5.93;1.92;;;26.40;51.80;;;;;;4996440;28;20514;-83
2022/08/13 08:07:01;;;;;;;5.43;1.73;;;26.40;51.80;;;;;;5013914;28;20129;-83
2022/08/13 08:09:31;;;;;;;5.78;1.65;;;26.50;52.00;;;;;;5013721;28;20026;-84
2022/08/13 08:14:49;;;;;;;6.15;2.08;;;26.50;54.00;;;;;;5013736;28;20647;-77
2022/08/13 08:17:16;;;;;;;6.03;1.73;;;26.40;54.20;;;;;;5013772;28;20463;-79
2022/08/13 08:19:42;;;;;;;6.07;1.63;;;26.30;54.40;;;;;;5013678;28;20030;-83
2022/08/13 08:22:11;;;;;;;4.93;1.70;;;26.20;54.40;;;;;;4996041;28;20026;-75
2022/08/13 08:24:37;;;;;;;3.90;1.60;;;26.40;54.50;;;;;;5013634;28;20053;-75
2022/08/13 08:27:05;;;;;;;4.07;1.80;;;26.30;54.90;;;;;;5013443;28;20387;-75
2022/08/13 08:29:34;;;;;;;5.55;2.10;;;26.30;54.50;;;;;;5013701;28;20022;-75
2022/08/13 08:32:04;;;;;;;2.47;1.60;;;26.30;54.40;;;;;;5013651;28;20060;-75
2022/08/13 08:34:30;;;;;;;3.72;1.85;;;26.40;54.40;;;;;;5013280;28;20025;-75
2022/08/13 08:36:56;;;;;;;3.08;1.70;;;26.40;54.40;;;;;;5013057;28;20456;-75
2022/08/13 08:45:14;;;;;;;4.47;1.30;;;26.50;54.30;;;;;;4980224;28;20038;-75
2022/08/13 08:47:41;;;;;;;3.72;1.50;;;26.50;54.20;;;;;;5013025;28;20020;-72
2022/08/13 08:50:09;;;;;;;3.97;1.50;;;26.60;54.30;;;;;;5013644;28;20018;-73
2022/08/13 08:55:19;;;;;;;5.22;1.70;;;26.60;54.50;;;;;;5013312;28;20045;-73
2022/08/13 08:57:46;;;;;;;7.43;1.63;;;26.70;54.70;;;;;;5013131;28;20022;-73
2022/08/13 09:00:18;;;;;;;5.00;1.40;;;26.70;54.70;;;;;;5013126;28;20084;-72
2022/08/13 09:02:47;;;;;;;7.07;1.58;;;26.70;54.80;;;;;;5013262;28;20030;-72
2022/08/13 09:05:16;;;;;;;4.15;1.45;;;26.70;54.70;;;;;;5013388;28;20025;-72
2022/08/13 09:07:46;;;;;;;2.67;1.40;;;26.80;54.60;;;;;;5012978;28;20096;-72
2022/08/13 09:10:13;;;;;;;5.35;1.65;;;26.80;54.80;;;;;;5013169;28;20091;-72
2022/08/13 09:12:42;;;;;;;4.57;1.90;;;26.80;54.90;;;;;;4995461;28;20537;-72
2022/08/13 09:15:10;;;;;;;8.13;1.55;;;26.80;54.90;;;;;;5013400;28;20026;-73
2022/08/13 09:17:37;;;;;;;4.95;1.70;;;26.80;55.10;;;;;;5013101;28;20073;-73
2022/08/13 09:20:05;;;;;;;3.60;1.75;;;26.80;55.30;;;;;;5012841;28;20041;-73
2022/08/13 09:22:31;;;;;;;4.25;1.77;;;26.80;55.30;;;;;;5012942;28;20010;-73
2022/08/13 09:24:58;;;;;;;4.65;1.55;;;26.80;55.10;;;;;;5013398;28;20037;-73
2022/08/13 09:27:28;;;;;;;4.88;1.80;;;26.90;55.10;;;;;;5012720;28;20018;-73
2022/08/13 09:29:54;;;;;;;3.65;1.35;;;26.90;55.20;;;;;;5013015;28;20029;-73
2022/08/13 09:32:21;;;;;;;3.05;1.40;;;26.90;54.90;;;;;;5012183;28;20046;-73
2022/08/13 09:34:47;;;;;;;4.07;1.40;;;27.00;54.90;;;;;;5012838;28;20021;-73
2022/08/13 09:37:13;;;;;;;6.38;1.50;;;27.00;55.10;;;;;;5012763;28;20069;-73
2022/08/13 09:39:52;;;;;;;3.47;1.48;;;27.00;55.00;;;;;;5012705;28;20375;-73
2022/08/13 09:42:28;;;;;;;4.03;1.33;;;27.00;54.80;;;;;;5012900;28;20033;-75
2022/08/13 09:44:56;;;;;;;4.53;1.20;;;27.00;54.50;;;;;;5012678;28;20022;-75
2022/08/13 09:47:22;;;;;;;4.15;1.58;;;27.10;53.70;;;;;;5012761;28;20475;-73
2022/08/13 09:49:49;;;;;;;3.28;1.30;;;27.10;54.30;;;;;;5012981;28;20133;-73
2022/08/13 09:52:19;;;;;;;5.22;1.48;;;27.10;54.40;;;;;;5013088;28;20025;-72
2022/08/13 09:54:45;;;;;;;3.47;1.17;;;27.10;54.40;;;;;;5012769;28;20466;-73
2022/08/13 09:57:10;;;;;;;4.18;1.05;;;27.10;54.50;;;;;;5012873;28;20026;-73
2022/08/13 09:59:36;;;;;;;4.32;1.42;;;27.10;54.20;;;;;;5014169;28;20482;-72
2022/08/13 10:02:09;;;;;;;1.50;1.23;;;27.10;54.20;;;;;;5016295;28;20048;-73
2022/08/13 10:04:37;;;;;;;2.58;1.05;;;27.20;54.30;;;;;;5016441;28;20021;-73
2022/08/13 10:07:04;;;;;;;2.85;1.27;;;27.20;54.30;;;;;;5016250;28;20057;-73
2022/08/13 10:09:30;;;;;;;2.15;1.23;;;27.20;54.40;;;;;;5016375;28;20018;-73
2022/08/13 10:11:58;;;;;;;2.97;1.30;;;27.20;54.40;;;;;;5016127;28;20030;-73
2022/08/13 10:14:24;;;;;;;2.13;1.20;;;27.20;54.50;;;;;;5016217;28;20022;-72
2022/08/13 10:16:50;;;;;;;6.10;1.10;;;27.20;54.40;;;;;;5015837;28;20052;-72
2022/08/13 10:19:16;;;;;;;4.45;1.25;;;27.20;54.40;;;;;;5015827;28;20018;-73
2022/08/13 10:21:42;;;;;;;3.67;1.25;;;27.20;54.80;;;;;;5015896;28;20117;-73
2022/08/13 10:24:07;;;;;;;3.97;1.20;;;27.20;54.80;;;;;;5015714;28;20014;-73
2022/08/13 10:26:33;;;;;;;3.00;1.25;;;27.20;54.90;;;;;;5015904;28;20029;-73
2022/08/13 10:28:59;;;;;;;5.05;1.40;;;27.20;54.80;;;;;;5015874;28;20463;-73
2022/08/13 10:31:28;;;;;;;7.47;1.65;;;27.20;54.80;;;;;;5015673;28;20026;-73
2022/08/13 10:33:58;;;;;;;3.40;1.30;;;27.20;54.80;;;;;;5015417;28;20032;-72
2022/08/13 10:36:26;;;;;;;5.85;1.20;;;27.20;54.80;;;;;;5015611;28;20026;-72
2022/08/13 10:38:51;;;;;;;3.85;1.20;;;27.30;54.60;;;;;;5015517;28;20033;-72
2022/08/13 10:41:17;;;;;;;3.45;0.98;;;27.30;54.80;;;;;;5015724;28;20037;-72
2022/08/13 10:43:43;;;;;;;4.45;1.00;;;27.30;54.60;;;;;;5015512;28;20136;-73
2022/08/13 10:46:12;;;;;;;2.47;0.90;;;27.30;54.80;;;;;;5015509;28;20513;-72
2022/08/13 10:48:38;;;;;;;2.45;0.80;;;27.30;54.70;;;;;;5015266;28;20022;-73
2022/08/13 10:51:04;;;;;;;3.75;1.10;;;27.30;54.80;;;;;;5015532;28;20064;-72
2022/08/13 10:56:16;;;;;;;2.55;1.15;;;27.40;54.90;;;;;;5015283;28;20064;-72
2022/08/13 10:58:42;;;;;;;2.80;1.00;;;27.40;55.70;;;;;;5015086;28;20041;-72
2022/08/13 11:01:08;;;;;;;2.25;0.85;;;27.40;55.10;;;;;;5015247;28;20038;-72
2022/08/13 11:03:34;;;;;;;2.08;0.75;;;27.40;55.00;;;;;;5015291;28;20033;-73
2022/08/13 11:06:01;;;;;;;1.13;0.80;;;27.40;54.80;;;;;;5015093;28;20036;-72
2022/08/13 11:08:27;;;;;;;2.85;1.00;;;27.40;54.80;;;;;;5014973;28;20100;-76
2022/08/13 11:10:53;;;;;;;6.50;0.90;;;27.40;54.90;;;;;;5014639;28;20486;-72
2022/08/13 11:13:18;;;;;;;2.33;0.82;;;27.40;54.60;;;;;;5015020;28;20034;-73
2022/08/13 11:15:44;;;;;;;3.53;0.98;;;27.40;53.10;;;;;;5015091;28;20026;-73
2022/08/13 11:18:09;;;;;;;1.23;0.73;;;27.40;54.20;;;;;;5014824;28;20029;-73
2022/08/13 11:21:02;;;;;;;3.50;0.90;;;27.40;54.80;;;;;;4997229;28;20038;-72
2022/08/13 11:23:21;;;;;;;3.47;1.17;;;27.40;54.30;;;;;;5014493;28;20030;-73
2022/08/13 11:25:46;;;;;;;4.63;0.80;;;27.50;55.00;;;;;;5014570;28;20368;-77
2022/08/13 11:28:13;;;;;;;3.63;1.02;;;27.50;55.10;;;;;;5014890;28;20022;-73
2022/08/13 11:30:39;;;;;;;1.40;0.70;;;27.60;51.50;;;;;;5014266;28;20038;-73
2022/08/13 11:33:06;;;;;;;1.48;0.60;;;27.60;48.80;;;;;;5014610;28;20129;-73
2022/08/13 11:35:33;;;;;;;0.82;0.50;;;27.60;49.90;;;;;;5014490;28;20458;-73
2022/08/13 11:38:06;;;;;;;1.13;0.70;;;27.70;46.70;;;;;;5014620;28;20033;-73
2022/08/13 11:40:32;;;;;;;2.40;0.70;;;27.70;49.60;;;;;;5014591;28;20029;-74
2022/08/13 11:42:57;;;;;;;2.45;0.80;;;27.70;50.00;;;;;;5014441;28;20024;-73
2022/08/13 11:45:23;;;;;;;2.05;0.98;;;27.70;48.10;;;;;;5014132;28;20022;-73
2022/08/13 11:47:49;;;;;;;4.95;0.90;;;27.80;48.30;;;;;;5014395;28;20116;-73
2022/08/13 11:50:14;;;;;;;4.70;0.50;;;27.90;47.40;;;;;;5014410;28;20033;-73
2022/08/13 11:52:40;;;;;;;1.27;0.40;;;27.90;48.50;;;;;;4996518;28;20049;-73
2022/08/13 11:55:06;;;;;;;1.98;0.30;;;28.00;44.70;;;;;;5014243;28;20391;-73
2022/08/13 11:57:31;;;;;;;3.65;0.70;;;28.00;46.90;;;;;;5014131;28;20026;-73
2022/08/13 11:59:57;;;;;;;1.00;0.80;;;27.90;51.80;;;;;;5013685;28;20026;-73
2022/08/13 12:02:22;;;;;;;1.92;0.70;;;27.80;52.40;;;;;;5014187;28;20120;-73
2022/08/13 12:04:48;;;;;;;3.47;0.90;;;27.90;52.90;;;;;;5013917;28;20026;-73
2022/08/13 12:07:14;;;;;;;2.80;0.80;;;27.80;52.30;;;;;;5013851;28;20025;-73
2022/08/13 12:09:39;;;;;;;1.33;0.80;;;27.90;51.40;;;;;;5014171;28;20426;-73
2022/08/13 12:12:05;;;;;;;1.45;0.65;;;27.80;52.00;;;;;;5014362;28;20499;-74
2022/08/13 12:14:31;;;;;;;0.90;0.55;;;27.80;52.50;;;;;;5013796;28;20463;-73
2022/08/13 12:16:57;;;;;;;1.08;0.70;;;27.90;47.50;;;;;;5013698;28;20036;-73
2022/08/13 12:19:22;;;;;;;5.45;1.10;;;27.90;52.20;;;;;;5013719;28;20026;-73
2022/08/13 12:21:48;;;;;;;1.13;0.63;;;27.90;52.80;;;;;;5013099;28;20141;-76
2022/08/13 12:24:13;;;;;;;3.75;0.80;;;27.80;51.80;;;;;;5013786;28;20022;-74
2022/08/13 12:26:39;;;;;;;3.28;0.80;;;27.80;53.20;;;;;;5013626;28;20548;-73
2022/08/13 12:29:04;;;;;;;9.55;1.05;;;27.70;53.60;;;;;;5013614;28;20056;-73
2022/08/13 12:31:30;;;;;;;1.52;0.60;;;27.80;53.50;;;;;;5013676;28;20026;-75
2022/08/13 12:33:55;;;;;;;3.83;1.10;;;27.80;53.80;;;;;;5013605;28;20065;-73
2022/08/13 12:36:21;;;;;;;2.45;0.70;;;27.80;53.90;;;;;;5013373;28;20026;-73
2022/08/13 12:38:47;;;;;;;2.03;0.70;;;27.80;53.00;;;;;;5013753;28;20101;-74
2022/08/13 12:41:13;;;;;;;1.58;0.70;;;27.80;53.70;;;;;;5013483;28;20390;-73
2022/08/13 12:43:40;;;;;;;3.28;0.70;;;27.70;53.90;;;;;;5013067;28;20046;-73
2022/08/13 12:46:05;;;;;;;3.63;0.88;;;27.80;54.10;;;;;;5013200;28;20076;-73
2022/08/13 12:48:31;;;;;;;2.90;0.68;;;27.90;54.00;;;;;;5013611;28;20030;-73
2022/08/13 12:50:58;;;;;;;3.03;0.63;;;27.80;54.10;;;;;;5013314;28;20080;-73
2022/08/13 12:53:23;;;;;;;3.47;0.50;;;27.80;54.30;;;;;;5013356;28;20022;-76
2022/08/13 12:55:49;;;;;;;1.10;0.60;;;27.90;48.80;;;;;;5013163;28;20056;-75
2022/08/13 12:58:26;;;;;;;3.13;0.50;;;27.90;52.10;;;;;;5013159;28;20532;-74
2022/08/13 13:00:54;;;;;;;1.77;0.85;;;27.90;52.30;;;;;;5012969;28;20407;-74
2022/08/13 13:03:21;;;;;;;2.45;0.60;;;27.90;51.10;;;;;;5013497;28;20049;-74
2022/08/13 13:05:49;;;;;;;1.73;0.57;;;28.00;50.90;;;;;;5013040;28;20034;-76
2022/08/13 13:08:27;;;;;;;4.40;0.77;;;27.90;53.30;;;;;;5013298;28;20022;-73
2022/08/13 13:10:55;;;;;;;5.70;0.75;;;27.90;54.10;;;;;;5013076;28;20026;-74
2022/08/13 13:13:23;;;;;;;4.32;0.73;;;28.00;54.20;;;;;;4995531;28;20010;-74
2022/08/13 13:15:49;;;;;;;2.45;0.85;;;28.00;54.50;;;;;;5013181;28;20026;-74